sensor_id;sensor_type;location;lat;lon;timestamp;pressure;altitude;pressure_sealevel;temperature;humidity
45523;BME280;31254;51.680;5.394;2023-05-27T00:02:08;102927.84;;;10.26;64.13
45523;BME280;31254;51.680;5.394;2023-05-27T00:04:35;102980.69;;;10.54;64.12
45523;BME280;31254;51.680;5.394;2023-05-27T00:07:02;102980.03;;;10.50;64.24
45523;BME280;31254;51.680;5.394;2023-05-27T00:09:31;102919.84;;;10.09;64.48
45523;BME280;31254;51.680;5.394;2023-05-27T00:11:58;102975.22;;;10.39;65.01
45523;BME280;31254;51.680;5.394;2023-05-27T00:14:25;102980.69;;;10.39;64.57
45523;BME280;31254;51.680;5.394;2023-05-27T00:16:52;102937.88;;;10.11;65.11
45523;BME280;31254;51.680;5.394;2023-05-27T00:19:19;102940.63;;;10.11;65.52
45523;BME280;31254;51.680;5.394;2023-05-27T00:21:46;102977.16;;;10.23;65.66
45523;BME280;31254;51.680;5.394;2023-05-27T00:24:13;102977.25;;;10.21;65.81
45523;BME280;31254;51.680;5.394;2023-05-27T00:26:40;102981.06;;;10.19;65.30
45523;BME280;31254;51.680;5.394;2023-05-27T00:29:09;102966.91;;;10.12;65.72
45523;BME280;31254;51.680;5.394;2023-05-27T00:31:36;102968.06;;;10.08;65.77
45523;BME280;31254;51.680;5.394;2023-05-27T00:34:03;102933.34;;;9.81;66.01
45523;BME280;31254;51.680;5.394;2023-05-27T00:36:32;102973.91;;;10.02;66.07
45523;BME280;31254;51.680;5.394;2023-05-27T00:39:00;102962.41;;;9.97;66.37
45523;BME280;31254;51.680;5.394;2023-05-27T00:41:27;102970.78;;;9.94;66.28
45523;BME280;31254;51.680;5.394;2023-05-27T00:43:56;102965.59;;;9.89;66.71
45523;BME280;31254;51.680;5.394;2023-05-27T00:46:23;102912.09;;;9.58;66.82
45523;BME280;31254;51.680;5.394;2023-05-27T00:48:50;102921.03;;;9.60;66.53
45523;BME280;31254;51.680;5.394;2023-05-27T00:51:17;102949.47;;;9.70;67.05
45523;BME280;31254;51.680;5.394;2023-05-27T00:53:49;102946.16;;;9.65;67.02
45523;BME280;31254;51.680;5.394;2023-05-27T00:56:16;102957.47;;;9.73;66.99
45523;BME280;31254;51.680;5.394;2023-05-27T00:58:49;102945.19;;;9.66;66.78
45523;BME280;31254;51.680;5.394;2023-05-27T01:01:16;102939.94;;;9.63;66.92
45523;BME280;31254;51.680;5.394;2023-05-27T01:03:44;102942.56;;;9.64;67.32
45523;BME280;31254;51.680;5.394;2023-05-27T01:11:41;102933.66;;;9.46;67.83
45523;BME280;31254;51.680;5.394;2023-05-27T01:14:11;102901.53;;;9.21;68.07
45523;BME280;31254;51.680;5.394;2023-05-27T01:16:46;102944.56;;;9.46;67.89
45523;BME280;31254;51.680;5.394;2023-05-27T01:19:15;102902.22;;;9.25;67.94
45523;BME280;31254;51.680;5.394;2023-05-27T01:21:48;102896.44;;;9.15;68.11
45523;BME280;31254;51.680;5.394;2023-05-27T01:24:17;102941.41;;;9.38;68.57
45523;BME280;31254;51.680;5.394;2023-05-27T01:26:44;102896.75;;;9.10;68.75
45523;BME280;31254;51.680;5.394;2023-05-27T01:29:11;102935.63;;;9.28;69.04
45523;BME280;31254;51.680;5.394;2023-05-27T01:31:50;102925.97;;;9.23;69.20
45523;BME280;31254;51.680;5.394;2023-05-27T01:34:25;102920.44;;;9.08;69.67
45523;BME280;31254;51.680;5.394;2023-05-27T01:36:58;102908.53;;;8.95;69.62
45523;BME280;31254;51.680;5.394;2023-05-27T01:39:26;102938.63;;;9.08;70.22
45523;BME280;31254;51.680;5.394;2023-05-27T01:41:53;102938.63;;;9.08;69.94
45523;BME280;31254;51.680;5.394;2023-05-27T01:44:21;102939.59;;;9.07;69.86
45523;BME280;31254;51.680;5.394;2023-05-27T01:47:03;102931.72;;;9.02;70.24
45523;BME280;31254;51.680;5.394;2023-05-27T01:49:30;102901.44;;;8.76;70.40
45523;BME280;31254;51.680;5.394;2023-05-27T01:51:57;102941.19;;;8.95;70.54
45523;BME280;31254;51.680;5.394;2023-05-27T01:54:24;102911.16;;;8.81;70.24
45523;BME280;31254;51.680;5.394;2023-05-27T01:56:53;102888.44;;;8.66;70.80
45523;BME280;31254;51.680;5.394;2023-05-27T01:59:20;102940.50;;;8.91;70.61
45523;BME280;31254;51.680;5.394;2023-05-27T02:01:47;102929.09;;;8.85;70.83
45523;BME280;31254;51.680;5.394;2023-05-27T02:04:14;102942.69;;;8.85;71.40
45523;BME280;31254;51.680;5.394;2023-05-27T02:06:43;102941.00;;;8.82;71.33
45523;BME280;31254;51.680;5.394;2023-05-27T02:09:10;102930.56;;;8.74;71.04
45523;BME280;31254;51.680;5.394;2023-05-27T02:11:39;102933.28;;;8.74;71.36
45523;BME280;31254;51.680;5.394;2023-05-27T02:14:06;102946.97;;;8.73;72.01
45523;BME280;31254;51.680;5.394;2023-05-27T02:16:34;102946.28;;;8.69;72.11
45523;BME280;31254;51.680;5.394;2023-05-27T02:19:01;102901.50;;;8.43;71.93
45523;BME280;31254;51.680;5.394;2023-05-27T02:21:30;102883.19;;;8.29;72.36
45523;BME280;31254;51.680;5.394;2023-05-27T02:23:57;102892.94;;;8.33;72.50
45523;BME280;31254;51.680;5.394;2023-05-27T02:26:24;102913.97;;;8.47;72.48
45523;BME280;31254;51.680;5.394;2023-05-27T02:28:51;102894.63;;;8.36;72.56
45523;BME280;31254;51.680;5.394;2023-05-27T02:31:18;102887.50;;;8.33;72.77
45523;BME280;31254;51.680;5.394;2023-05-27T02:33:45;102881.38;;;8.30;72.65
45523;BME280;31254;51.680;5.394;2023-05-27T02:36:12;102889.44;;;8.31;72.83
45523;BME280;31254;51.680;5.394;2023-05-27T02:38:39;102905.22;;;8.40;72.83
45523;BME280;31254;51.680;5.394;2023-05-27T02:41:06;102882.41;;;8.27;72.70
45523;BME280;31254;51.680;5.394;2023-05-27T02:43:35;102932.72;;;8.52;72.81
45523;BME280;31254;51.680;5.394;2023-05-27T02:46:02;102933.72;;;8.51;72.74
45523;BME280;31254;51.680;5.394;2023-05-27T02:48:29;102947.66;;;8.45;73.33
45523;BME280;31254;51.680;5.394;2023-05-27T02:50:55;102923.34;;;8.24;73.31
45523;BME280;31254;51.680;5.394;2023-05-27T02:53:22;102934.59;;;8.34;73.57
45523;BME280;31254;51.680;5.394;2023-05-27T02:55:49;102897.81;;;8.11;73.65
45523;BME280;31254;51.680;5.394;2023-05-27T02:58:17;102902.38;;;8.10;73.39
45523;BME280;31254;51.680;5.394;2023-05-27T03:00:44;102917.47;;;8.16;73.90
45523;BME280;31254;51.680;5.394;2023-05-27T03:03:10;102938.78;;;8.23;73.87
45523;BME280;31254;51.680;5.394;2023-05-27T03:05:37;102908.69;;;8.11;73.61
45523;BME280;31254;51.680;5.394;2023-05-27T03:08:04;102951.00;;;8.32;73.85
45523;BME280;31254;51.680;5.394;2023-05-27T03:10:35;102901.63;;;8.06;73.75
45523;BME280;31254;51.680;5.394;2023-05-27T03:13:02;102891.13;;;8.00;74.02
45523;BME280;31254;51.680;5.394;2023-05-27T03:15:30;102952.06;;;8.30;74.56
45523;BME280;31254;51.680;5.394;2023-05-27T03:17:58;102894.16;;;7.94;74.58
45523;BME280;31254;51.680;5.394;2023-05-27T03:20:25;102919.72;;;8.08;74.46
45523;BME280;31254;51.680;5.394;2023-05-27T03:22:52;102929.31;;;8.15;74.51
45523;BME280;31254;51.680;5.394;2023-05-27T03:25:19;102949.75;;;8.22;74.82
45523;BME280;31254;51.680;5.394;2023-05-27T03:27:46;102933.94;;;8.13;74.96
45523;BME280;31254;51.680;5.394;2023-05-27T03:30:15;102935.09;;;8.09;74.90
45523;BME280;31254;51.680;5.394;2023-05-27T03:32:42;102903.91;;;7.98;74.60
45523;BME280;31254;51.680;5.394;2023-05-27T03:35:09;102900.47;;;7.95;75.20
45523;BME280;31254;51.680;5.394;2023-05-27T03:37:36;102890.66;;;7.92;74.94
45523;BME280;31254;51.680;5.394;2023-05-27T03:40:03;102938.09;;;8.20;75.00
45523;BME280;31254;51.680;5.394;2023-05-27T03:42:31;102931.84;;;8.18;75.61
45523;BME280;31254;51.680;5.394;2023-05-27T03:44:58;102884.56;;;7.87;75.25
45523;BME280;31254;51.680;5.394;2023-05-27T03:47:27;102930.09;;;8.17;75.56
45523;BME280;31254;51.680;5.394;2023-05-27T03:49:54;102929.22;;;8.16;75.47
45523;BME280;31254;51.680;5.394;2023-05-27T03:52:21;102922.81;;;8.17;75.60
45523;BME280;31254;51.680;5.394;2023-05-27T03:54:48;102920.78;;;8.21;75.46
45523;BME280;31254;51.680;5.394;2023-05-27T03:57:17;102875.69;;;8.01;75.54
45523;BME280;31254;51.680;5.394;2023-05-27T03:59:44;102909.66;;;8.26;75.31
45523;BME280;31254;51.680;5.394;2023-05-27T04:02:11;102913.28;;;8.26;75.38
45523;BME280;31254;51.680;5.394;2023-05-27T04:04:38;102861.06;;;8.03;75.78
45523;BME280;31254;51.680;5.394;2023-05-27T04:07:05;102873.75;;;8.03;75.70
45523;BME280;31254;51.680;5.394;2023-05-27T04:09:32;102907.56;;;8.31;75.99
45523;BME280;31254;51.680;5.394;2023-05-27T04:11:59;102907.41;;;8.34;75.67
45523;BME280;31254;51.680;5.394;2023-05-27T04:14:27;102910.53;;;8.44;75.70
45523;BME280;31254;51.680;5.394;2023-05-27T04:16:53;102872.66;;;8.23;75.89
45523;BME280;31254;51.680;5.394;2023-05-27T04:19:23;102913.50;;;8.55;75.53
45523;BME280;31254;51.680;5.394;2023-05-27T04:21:49;102908.69;;;8.60;74.97
45523;BME280;31254;51.680;5.394;2023-05-27T04:24:17;102905.09;;;8.59;75.14
45523;BME280;31254;51.680;5.394;2023-05-27T04:26:44;102910.97;;;8.68;75.21
45523;BME280;31254;51.680;5.394;2023-05-27T04:29:12;102862.16;;;8.49;74.71
45523;BME280;31254;51.680;5.394;2023-05-27T04:31:39;102897.22;;;8.71;75.26
45523;BME280;31254;51.680;5.394;2023-05-27T04:34:07;102886.66;;;8.65;75.31
45523;BME280;31254;51.680;5.394;2023-05-27T04:36:34;102883.34;;;8.75;75.03
45523;BME280;31254;51.680;5.394;2023-05-27T04:39:04;102892.44;;;9.06;74.38
45523;BME280;31254;51.680;5.394;2023-05-27T04:41:31;102847.16;;;9.50;72.63
45523;BME280;31254;51.680;5.394;2023-05-27T04:43:59;102842.72;;;10.06;71.50
45523;BME280;31254;51.680;5.394;2023-05-27T04:46:29;102842.81;;;10.05;71.32
45523;BME280;31254;51.680;5.394;2023-05-27T04:48:56;102882.84;;;10.19;71.89
45523;BME280;31254;51.680;5.394;2023-05-27T04:51:23;102883.91;;;10.16;72.30
45523;BME280;31254;51.680;5.394;2023-05-27T04:53:50;102836.97;;;9.82;72.55
45523;BME280;31254;51.680;5.394;2023-05-27T04:56:17;102879.06;;;10.36;71.92
45523;BME280;31254;51.680;5.394;2023-05-27T04:58:44;102872.78;;;11.70;68.31
45523;BME280;31254;51.680;5.394;2023-05-27T05:01:13;102883.41;;;13.00;64.41
45523;BME280;31254;51.680;5.394;2023-05-27T05:03:50;102862.03;;;13.76;62.02
45523;BME280;31254;51.680;5.394;2023-05-27T05:06:20;102831.59;;;14.47;60.18
45523;BME280;31254;51.680;5.394;2023-05-27T05:08:48;102867.16;;;15.15;59.19
45523;BME280;31254;51.680;5.394;2023-05-27T05:11:15;102855.94;;;15.60;57.83
45523;BME280;31254;51.680;5.394;2023-05-27T05:13:42;102821.94;;;15.71;57.04
45523;BME280;31254;51.680;5.394;2023-05-27T05:16:11;102867.34;;;16.29;56.21
45523;BME280;31254;51.680;5.394;2023-05-27T05:18:38;102855.06;;;17.32;53.97
45523;BME280;31254;51.680;5.394;2023-05-27T05:21:05;102847.09;;;17.39;53.16
45523;BME280;31254;51.680;5.394;2023-05-27T05:23:34;102858.63;;;17.71;52.58
45523;BME280;31254;51.680;5.394;2023-05-27T05:26:01;102839.59;;;17.88;52.04
45523;BME280;31254;51.680;5.394;2023-05-27T05:28:33;102823.41;;;18.40;50.71
45523;BME280;31254;51.680;5.394;2023-05-27T05:31:04;102826.41;;;18.19;50.64
45523;BME280;31254;51.680;5.394;2023-05-27T05:33:31;102818.84;;;18.21;50.40
45523;BME280;31254;51.680;5.394;2023-05-27T05:35:58;102852.19;;;19.11;49.11
45523;BME280;31254;51.680;5.394;2023-05-27T05:38:25;102860.41;;;19.39;48.42
45523;BME280;31254;51.680;5.394;2023-05-27T05:40:52;102855.34;;;19.34;48.11
45523;BME280;31254;51.680;5.394;2023-05-27T05:43:20;102836.91;;;19.69;47.60
45523;BME280;31254;51.680;5.394;2023-05-27T05:45:50;102834.19;;;20.30;46.59
45523;BME280;31254;51.680;5.394;2023-05-27T05:48:17;102831.78;;;20.35;46.37
45523;BME280;31254;51.680;5.394;2023-05-27T05:50:44;102806.81;;;20.86;44.66
45523;BME280;31254;51.680;5.394;2023-05-27T05:53:16;102810.47;;;20.78;44.62
45523;BME280;31254;51.680;5.394;2023-05-27T05:55:43;102827.63;;;20.90;44.24
45523;BME280;31254;51.680;5.394;2023-05-27T05:58:09;102825.16;;;20.71;45.12
45523;BME280;31254;51.680;5.394;2023-05-27T06:00:36;102838.25;;;21.28;43.68
45523;BME280;31254;51.680;5.394;2023-05-27T06:03:03;102847.94;;;21.07;44.25
45523;BME280;31254;51.680;5.394;2023-05-27T06:05:30;102823.31;;;21.04;43.66
45523;BME280;31254;51.680;5.394;2023-05-27T06:07:57;102804.56;;;20.81;44.19
45523;BME280;31254;51.680;5.394;2023-05-27T06:10:24;102788.97;;;21.63;42.86
45523;BME280;31254;51.680;5.394;2023-05-27T06:12:50;102833.50;;;22.50;41.38
45523;BME280;31254;51.680;5.394;2023-05-27T06:15:17;102825.59;;;21.66;42.47
45523;BME280;31254;51.680;5.394;2023-05-27T06:17:44;102824.06;;;22.12;41.79
45523;BME280;31254;51.680;5.394;2023-05-27T06:20:11;102826.78;;;22.28;41.50
45523;BME280;31254;51.680;5.394;2023-05-27T06:22:38;102822.53;;;22.57;40.82
45523;BME280;31254;51.680;5.394;2023-05-27T06:25:07;102819.00;;;22.63;40.42
45523;BME280;31254;51.680;5.394;2023-05-27T06:27:36;102793.56;;;22.74;40.12
45523;BME280;31254;51.680;5.394;2023-05-27T06:30:03;102819.25;;;23.31;39.43
45523;BME280;31254;51.680;5.394;2023-05-27T06:32:30;102817.03;;;23.26;39.59
45523;BME280;31254;51.680;5.394;2023-05-27T06:34:57;102802.94;;;22.96;40.35
45523;BME280;31254;51.680;5.394;2023-05-27T06:37:24;102815.25;;;22.48;40.45
45523;BME280;31254;51.680;5.394;2023-05-27T06:39:51;102792.94;;;22.24;40.57
45523;BME280;31254;51.680;5.394;2023-05-27T06:42:18;102804.03;;;22.64;40.32
45523;BME280;31254;51.680;5.394;2023-05-27T06:44:45;102799.66;;;23.92;38.52
45523;BME280;31254;51.680;5.394;2023-05-27T06:47:12;102772.16;;;23.59;38.62
45523;BME280;31254;51.680;5.394;2023-05-27T06:49:39;102775.69;;;23.68;38.62
45523;BME280;31254;51.680;5.394;2023-05-27T06:52:06;102771.31;;;23.35;38.89
45523;BME280;31254;51.680;5.394;2023-05-27T06:54:41;102794.69;;;24.02;38.32
45523;BME280;31254;51.680;5.394;2023-05-27T06:57:07;102798.06;;;24.64;37.34
45523;BME280;31254;51.680;5.394;2023-05-27T06:59:34;102788.84;;;24.49;37.49
45523;BME280;31254;51.680;5.394;2023-05-27T07:02:01;102795.50;;;24.84;36.77
45523;BME280;31254;51.680;5.394;2023-05-27T07:04:28;102792.00;;;24.45;37.22
45523;BME280;31254;51.680;5.394;2023-05-27T07:06:55;102790.56;;;24.86;36.74
45523;BME280;31254;51.680;5.394;2023-05-27T07:09:21;102782.97;;;24.43;37.30
45523;BME280;31254;51.680;5.394;2023-05-27T07:11:48;102781.81;;;23.86;38.09
45523;BME280;31254;51.680;5.394;2023-05-27T07:14:15;102777.00;;;24.46;37.30
45523;BME280;31254;51.680;5.394;2023-05-27T07:16:42;102751.63;;;24.56;36.67
45523;BME280;31254;51.680;5.394;2023-05-27T07:19:11;102784.50;;;25.26;36.10
45523;BME280;31254;51.680;5.394;2023-05-27T07:21:38;102780.16;;;24.95;36.24
45523;BME280;31254;51.680;5.394;2023-05-27T07:24:05;102756.34;;;24.56;36.69
45523;BME280;31254;51.680;5.394;2023-05-27T07:26:34;102772.25;;;25.48;35.56
45523;BME280;31254;51.680;5.394;2023-05-27T07:29:03;102770.97;;;25.79;35.28
45523;BME280;31254;51.680;5.394;2023-05-27T07:31:35;102777.03;;;25.54;35.32
45523;BME280;31254;51.680;5.394;2023-05-27T07:34:02;102774.44;;;25.03;35.91
45523;BME280;31254;51.680;5.394;2023-05-27T07:36:29;102776.91;;;25.98;34.71
45523;BME280;31254;51.680;5.394;2023-05-27T07:38:56;102741.66;;;25.97;34.92
45523;BME280;31254;51.680;5.394;2023-05-27T07:41:22;102762.16;;;26.24;34.17
45523;BME280;31254;51.680;5.394;2023-05-27T07:43:50;102742.69;;;26.44;33.47
45523;BME280;31254;51.680;5.394;2023-05-27T07:46:19;102759.59;;;26.97;33.13
45523;BME280;31254;51.680;5.394;2023-05-27T07:48:46;102753.88;;;26.51;33.43
45523;BME280;31254;51.680;5.394;2023-05-27T07:51:13;102690.25;;;26.86;32.74
45523;BME280;31254;51.680;5.394;2023-05-27T07:53:40;102719.53;;;27.17;32.92
45523;BME280;31254;51.680;5.394;2023-05-27T07:56:07;102742.28;;;26.60;33.64
45523;BME280;31254;51.680;5.394;2023-05-27T07:58:33;102742.28;;;26.54;33.63
45523;BME280;31254;51.680;5.394;2023-05-27T08:01:00;102743.44;;;26.73;32.92
45523;BME280;31254;51.680;5.394;2023-05-27T08:03:27;102739.75;;;26.11;33.82
45523;BME280;31254;51.680;5.394;2023-05-27T08:05:54;102711.28;;;26.55;33.21
45523;BME280;31254;51.680;5.394;2023-05-27T08:08:21;102704.03;;;26.81;32.29
45523;BME280;31254;51.680;5.394;2023-05-27T08:10:48;102709.84;;;26.73;32.71
45523;BME280;31254;51.680;5.394;2023-05-27T08:13:15;102702.28;;;25.98;33.53
45523;BME280;31254;51.680;5.394;2023-05-27T08:15:41;102701.66;;;26.78;32.49
45523;BME280;31254;51.680;5.394;2023-05-27T08:18:08;102724.47;;;27.48;31.91
45523;BME280;31254;51.680;5.394;2023-05-27T08:20:35;102703.78;;;27.23;31.87
45523;BME280;31254;51.680;5.394;2023-05-27T08:23:02;102709.09;;;27.78;31.53
45523;BME280;31254;51.680;5.394;2023-05-27T08:25:28;102712.91;;;29.06;30.47
45523;BME280;31254;51.680;5.394;2023-05-27T08:27:56;102704.59;;;28.67;29.86
45523;BME280;31254;51.680;5.394;2023-05-27T08:30:29;102703.03;;;28.01;31.40
45523;BME280;31254;51.680;5.394;2023-05-27T08:32:56;102671.78;;;28.29;30.92
45523;BME280;31254;51.680;5.394;2023-05-27T08:35:25;102703.16;;;28.51;30.73
45523;BME280;31254;51.680;5.394;2023-05-27T08:37:52;102673.50;;;27.85;31.09
45523;BME280;31254;51.680;5.394;2023-05-27T08:40:19;102666.75;;;28.06;30.99
45523;BME280;31254;51.680;5.394;2023-05-27T08:42:47;102693.22;;;27.51;31.74
45523;BME280;31254;51.680;5.394;2023-05-27T08:45:15;102686.97;;;27.29;31.85
45523;BME280;31254;51.680;5.394;2023-05-27T08:47:42;102662.75;;;26.08;33.04
45523;BME280;31254;51.680;5.394;2023-05-27T08:50:09;102682.56;;;25.71;34.26
45523;BME280;31254;51.680;5.394;2023-05-27T08:52:46;102680.09;;;25.27;35.21
45523;BME280;31254;51.680;5.394;2023-05-27T08:55:15;102678.09;;;25.42;34.79
45523;BME280;31254;51.680;5.394;2023-05-27T08:57:54;102641.88;;;27.64;31.34
45523;BME280;31254;51.680;5.394;2023-05-27T09:00:22;102641.63;;;27.72;31.13
45523;BME280;31254;51.680;5.394;2023-05-27T09:02:49;102646.44;;;27.52;31.26
45523;BME280;31254;51.680;5.394;2023-05-27T09:05:17;102670.84;;;27.38;31.33
45523;BME280;31254;51.680;5.394;2023-05-27T09:07:44;102645.44;;;25.91;33.58
45523;BME280;31254;51.680;5.394;2023-05-27T09:10:11;102676.13;;;25.71;34.57
45523;BME280;31254;51.680;5.394;2023-05-27T09:12:44;102660.78;;;24.54;36.42
45523;BME280;31254;51.680;5.394;2023-05-27T09:15:12;102670.81;;;23.75;37.68
45523;BME280;31254;51.680;5.394;2023-05-27T09:17:41;102671.00;;;23.29;38.34
45523;BME280;31254;51.680;5.394;2023-05-27T09:20:09;102670.72;;;23.39;38.02
45523;BME280;31254;51.680;5.394;2023-05-27T09:22:38;102672.03;;;22.75;39.67
45523;BME280;31254;51.680;5.394;2023-05-27T09:25:06;102663.94;;;22.65;39.53
45523;BME280;31254;51.680;5.394;2023-05-27T09:27:33;102630.28;;;22.75;39.09
45523;BME280;31254;51.680;5.394;2023-05-27T09:30:07;102654.78;;;22.79;39.49
45523;BME280;31254;51.680;5.394;2023-05-27T09:32:35;102626.44;;;22.38;39.83
45523;BME280;31254;51.680;5.394;2023-05-27T09:35:04;102652.47;;;21.82;41.45
45523;BME280;31254;51.680;5.394;2023-05-27T09:37:32;102638.81;;;21.08;41.87
45523;BME280;31254;51.680;5.394;2023-05-27T09:40:10;102664.50;;;20.94;42.86
45523;BME280;31254;51.680;5.394;2023-05-27T09:42:46;102656.19;;;20.86;42.45
45523;BME280;31254;51.680;5.394;2023-05-27T09:45:18;102647.84;;;20.94;42.91
45523;BME280;31254;51.680;5.394;2023-05-27T09:47:53;102645.75;;;20.88;43.22
45523;BME280;31254;51.680;5.394;2023-05-27T09:50:21;102642.31;;;20.86;43.40
45523;BME280;31254;51.680;5.394;2023-05-27T09:52:49;102643.72;;;20.90;43.07
45523;BME280;31254;51.680;5.394;2023-05-27T09:55:34;102639.19;;;20.89;43.11
45523;BME280;31254;51.680;5.394;2023-05-27T09:58:01;102637.69;;;21.34;42.84
45523;BME280;31254;51.680;5.394;2023-05-27T10:00:29;102631.75;;;21.53;42.30
45523;BME280;31254;51.680;5.394;2023-05-27T10:03:00;102615.16;;;22.08;41.79
45523;BME280;31254;51.680;5.394;2023-05-27T10:05:28;102624.09;;;21.95;41.40
45523;BME280;31254;51.680;5.394;2023-05-27T10:07:58;102623.63;;;21.83;41.85
45523;BME280;31254;51.680;5.394;2023-05-27T10:10:27;102593.78;;;21.85;41.88
45523;BME280;31254;51.680;5.394;2023-05-27T10:12:55;102606.28;;;22.13;41.68
45523;BME280;31254;51.680;5.394;2023-05-27T10:15:31;102620.31;;;21.88;41.73
45523;BME280;31254;51.680;5.394;2023-05-27T10:18:05;102608.47;;;21.94;41.99
45523;BME280;31254;51.680;5.394;2023-05-27T10:20:42;102578.44;;;22.21;41.49
45523;BME280;31254;51.680;5.394;2023-05-27T10:23:12;102570.13;;;21.89;41.73
45523;BME280;31254;51.680;5.394;2023-05-27T10:25:40;102605.44;;;22.04;42.06
45523;BME280;31254;51.680;5.394;2023-05-27T10:28:32;102605.69;;;22.17;41.89
45523;BME280;31254;51.680;5.394;2023-05-27T10:31:14;102611.50;;;22.39;41.36
45523;BME280;31254;51.680;5.394;2023-05-27T10:33:47;102600.81;;;22.66;40.83
45523;BME280;31254;51.680;5.394;2023-05-27T10:36:22;102571.25;;;22.03;41.67
45523;BME280;31254;51.680;5.394;2023-05-27T10:39:06;102566.78;;;21.71;41.91
45523;BME280;31254;51.680;5.394;2023-05-27T10:41:52;102592.03;;;21.84;42.38
45523;BME280;31254;51.680;5.394;2023-05-27T10:44:35;102592.94;;;22.08;41.42
45523;BME280;31254;51.680;5.394;2023-05-27T10:47:04;102557.88;;;22.30;41.17
45523;BME280;31254;51.680;5.394;2023-05-27T10:49:38;102575.53;;;22.75;40.32
45523;BME280;31254;51.680;5.394;2023-05-27T10:52:10;102574.78;;;22.96;40.49
45523;BME280;31254;51.680;5.394;2023-05-27T10:54:40;102573.25;;;22.94;40.09
45523;BME280;31254;51.680;5.394;2023-05-27T10:57:08;102563.56;;;22.90;39.97
45523;BME280;31254;51.680;5.394;2023-05-27T11:02:05;102532.06;;;23.34;38.88
45523;BME280;31254;51.680;5.394;2023-05-27T11:04:36;102552.50;;;23.56;38.54
45523;BME280;31254;51.680;5.394;2023-05-27T11:07:04;102531.97;;;23.42;38.77
45523;BME280;31254;51.680;5.394;2023-05-27T11:09:51;102538.34;;;23.36;39.02
45523;BME280;31254;51.680;5.394;2023-05-27T11:12:23;102543.91;;;23.72;38.41
45523;BME280;31254;51.680;5.394;2023-05-27T11:14:51;102547.34;;;23.38;38.28
45523;BME280;31254;51.680;5.394;2023-05-27T11:17:20;102541.41;;;23.26;39.09
45523;BME280;31254;51.680;5.394;2023-05-27T11:19:47;102541.69;;;23.31;39.18
45523;BME280;31254;51.680;5.394;2023-05-27T11:22:16;102526.78;;;23.76;37.80
45523;BME280;31254;51.680;5.394;2023-05-27T11:24:55;102537.44;;;23.87;38.17
45523;BME280;31254;51.680;5.394;2023-05-27T11:27:22;102523.75;;;23.70;37.92
45523;BME280;31254;51.680;5.394;2023-05-27T11:29:51;102523.72;;;23.49;37.79
45523;BME280;31254;51.680;5.394;2023-05-27T11:32:18;102519.50;;;23.38;38.45
45523;BME280;31254;51.680;5.394;2023-05-27T11:34:45;102516.53;;;23.40;38.20
45523;BME280;31254;51.680;5.394;2023-05-27T11:37:14;102520.66;;;23.29;37.99
45523;BME280;31254;51.680;5.394;2023-05-27T11:39:51;102470.94;;;23.26;37.76
45523;BME280;31254;51.680;5.394;2023-05-27T11:42:22;102468.84;;;23.86;37.77
45523;BME280;31254;51.680;5.394;2023-05-27T11:44:51;102502.50;;;24.34;36.73
45523;BME280;31254;51.680;5.394;2023-05-27T11:47:19;102484.09;;;24.12;36.43
45523;BME280;31254;51.680;5.394;2023-05-27T11:49:49;102483.94;;;24.20;36.77
45523;BME280;31254;51.680;5.394;2023-05-27T11:52:17;102474.28;;;24.16;36.65
45523;BME280;31254;51.680;5.394;2023-05-27T11:54:49;102484.50;;;23.87;37.22
45523;BME280;31254;51.680;5.394;2023-05-27T11:57:23;102449.13;;;23.66;36.88
45523;BME280;31254;51.680;5.394;2023-05-27T11:59:50;102473.47;;;24.00;36.38
45523;BME280;31254;51.680;5.394;2023-05-27T12:02:17;102472.88;;;24.05;36.02
45523;BME280;31254;51.680;5.394;2023-05-27T12:04:47;102466.75;;;24.16;35.84
45523;BME280;31254;51.680;5.394;2023-05-27T12:07:13;102429.59;;;24.37;35.10
45523;BME280;31254;51.680;5.394;2023-05-27T12:09:46;102437.00;;;24.80;34.70
45523;BME280;31254;51.680;5.394;2023-05-27T12:12:18;102450.84;;;24.67;34.64
45523;BME280;31254;51.680;5.394;2023-05-27T12:14:45;102425.78;;;24.45;34.89
45523;BME280;31254;51.680;5.394;2023-05-27T12:17:14;102458.13;;;24.61;34.71
45523;BME280;31254;51.680;5.394;2023-05-27T12:19:41;102452.06;;;24.29;34.27
45523;BME280;31254;51.680;5.394;2023-05-27T12:22:08;102449.94;;;24.03;35.47
45523;BME280;31254;51.680;5.394;2023-05-27T12:24:34;102442.91;;;23.85;35.34
45523;BME280;31254;51.680;5.394;2023-05-27T12:27:02;102440.88;;;23.94;35.23
45523;BME280;31254;51.680;5.394;2023-05-27T12:29:28;102412.38;;;23.99;34.71
45523;BME280;31254;51.680;5.394;2023-05-27T12:31:57;102428.13;;;24.13;34.63
45523;BME280;31254;51.680;5.394;2023-05-27T12:34:24;102423.16;;;24.37;34.98
45523;BME280;31254;51.680;5.394;2023-05-27T12:36:52;102394.63;;;24.06;35.19
45523;BME280;31254;51.680;5.394;2023-05-27T12:39:19;102423.03;;;24.17;34.43
45523;BME280;31254;51.680;5.394;2023-05-27T12:41:49;102399.72;;;23.96;35.12
45523;BME280;31254;51.680;5.394;2023-05-27T12:44:16;102421.88;;;24.39;34.67
45523;BME280;31254;51.680;5.394;2023-05-27T12:46:45;102414.28;;;24.90;34.12
45523;BME280;31254;51.680;5.394;2023-05-27T12:49:12;102411.41;;;24.76;33.75
45523;BME280;31254;51.680;5.394;2023-05-27T12:51:41;102425.63;;;24.81;34.49
45523;BME280;31254;51.680;5.394;2023-05-27T12:54:09;102414.28;;;24.55;34.18
45523;BME280;31254;51.680;5.394;2023-05-27T12:56:36;102407.72;;;24.69;34.13
45523;BME280;31254;51.680;5.394;2023-05-27T12:59:03;102364.75;;;24.57;34.11
45523;BME280;31254;51.680;5.394;2023-05-27T13:01:29;102395.00;;;24.60;34.37
45523;BME280;31254;51.680;5.394;2023-05-27T13:03:57;102389.31;;;24.40;34.40
45523;BME280;31254;51.680;5.394;2023-05-27T13:06:24;102382.72;;;24.19;34.47
45523;BME280;31254;51.680;5.394;2023-05-27T13:08:50;102391.91;;;24.48;34.52